Time;durP1;ratioP1;P1;durP2;ratioP2;P2;SDS_P1;SDS_P2;PMS_P1;PMS_P2;Temp;Humidity;BMP_temperature;BMP_pressure;BME280_temperature;BME280_humidity;BME280_pressure;Samples;Min_cycle;Max_cycle;Signal;HPM_P1;HPM_P2
2021/06/14 00:00:16;;;;;;;;;;;;;;;22.93;27.44;100586.16;5259453;27;32435;-92
2021/06/14 00:02:46;;;;;;;;;;;;;;;22.66;27.85;100584.47;5242572;27;32810;-92
2021/06/14 00:05:15;;;;;;;;;;;;;;;22.46;28.15;100583.16;5259324;27;33508;-90
2021/06/14 00:07:47;;;;;;;;;;;;;;;22.39;28.34;100581.03;5243293;27;33316;-93
2021/06/14 00:10:15;;;;;;;;;;;;;;;23.02;27.44;100579.37;5259522;27;32413;-92
2021/06/14 00:12:42;;;;;;;;;;;;;;;22.06;29.02;100579.63;5259796;27;34292;-92
2021/06/14 00:15:13;;;;;;;;;;;;;;;22.39;28.39;100570.41;5259681;27;32973;-92
2021/06/14 00:17:40;;;;;;;;;;;;;;;22.75;27.98;100560.88;5259541;27;32562;-92
2021/06/14 00:20:09;;;;;;;;;;;;;;;21.98;29.20;100572.19;5242054;27;31835;-93
2021/06/14 00:22:38;;;;;;;;;;;;;;;21.82;29.43;100567.88;5241967;27;33016;-92
2021/06/14 00:25:07;;;;;;;;;;;;;;;22.74;28.04;100568.00;5242177;27;32972;-92
2021/06/14 00:27:34;;;;;;;;;;;;;;;22.39;28.57;100565.09;5277880;27;34631;-92
2021/06/14 00:30:05;;;;;;;;;;;;;;;22.44;28.48;100568.28;5260048;27;32102;-93
2021/06/14 00:32:32;;;;;;;;;;;;;;;20.66;31.27;100577.66;5260182;27;32919;-91
2021/06/14 00:35:00;;;;;;;;;;;;;;;21.02;31.12;100571.09;5259759;27;33052;-91
2021/06/14 00:37:28;;;;;;;;;;;;;;;20.62;31.83;100577.91;5260078;27;33191;-92
2021/06/14 00:39:56;;;;;;;;;;;;;;;21.00;31.06;100572.13;5260419;27;31792;-92
2021/06/14 00:42:27;;;;;;;;;;;;;;;20.52;32.09;100578.47;5259423;27;32758;-91
2021/06/14 00:44:56;;;;;;;;;;;;;;;21.30;30.78;100574.69;5242292;27;33062;-92
2021/06/14 00:47:24;;;;;;;;;;;;;;;21.18;31.00;100573.66;5259674;27;32882;-92
2021/06/14 00:49:52;;;;;;;;;;;;;;;21.21;30.98;100571.75;5242261;27;32049;-91
2021/06/14 00:52:20;;;;;;;;;;;;;;;20.80;31.84;100576.00;5271227;27;33820;-92
2021/06/14 00:54:49;;;;;;;;;;;;;;;21.05;31.37;100579.78;5254259;27;32902;-91
2021/06/14 00:57:18;;;;;;;;;;;;;;;21.03;31.47;100579.87;5270352;27;33049;-92
2021/06/14 00:59:47;;;;;;;;;;;;;;;20.97;31.64;100575.00;5271471;27;32251;-92
2021/06/14 01:02:20;;;;;;;;;;;;;;;20.87;31.85;100581.78;5271271;27;33116;-91
2021/06/14 01:04:49;;;;;;;;;;;;;;;21.07;31.54;100580.56;5271810;27;33944;-92
2021/06/14 01:07:18;;;;;;;;;;;;;;;20.82;32.10;100582.03;5271466;27;33967;-91
2021/06/14 01:09:47;;;;;;;;;;;;;;;20.48;32.86;100590.19;5269133;27;32533;-91
2021/06/14 01:12:20;;;;;;;;;;;;;;;20.51;33.11;100590.03;5270572;27;32638;-91
2021/06/14 01:14:54;;;;;;;;;;;;;;;20.21;33.79;100586.50;5245126;27;34278;-92
2021/06/14 01:17:43;;;;;;;;;;;;;;;19.98;34.07;100589.53;5336208;26;33923;-92
2021/06/14 01:20:36;;;;;;;;;;;;;;;19.68;35.15;100589.44;5244404;27;32889;-91
2021/06/14 01:23:12;;;;;;;;;;;;;;;19.16;36.16;100593.97;5242094;27;32799;-92
2021/06/14 01:25:52;;;;;;;;;;;;;;;19.60;35.39;100591.66;5242501;27;33187;-92
2021/06/14 01:28:22;;;;;;;;;;;;;;;19.67;35.18;100585.94;5242295;27;32801;-91
2021/06/14 01:30:51;;;;;;;;;;;;;;;18.98;36.91;100587.88;5241948;27;32680;-92
2021/06/14 01:33:23;;;;;;;;;;;;;;;19.57;35.54;100584.75;5259977;27;32843;-91
2021/06/14 01:35:55;;;;;;;;;;;;;;;18.60;37.44;100582.78;5242021;27;32910;-93
2021/06/14 01:38:25;;;;;;;;;;;;;;;19.25;36.32;100583.84;5259635;27;32593;-91
2021/06/14 01:40:55;;;;;;;;;;;;;;;19.99;34.97;100583.28;5241837;27;31708;-92
2021/06/14 01:43:28;;;;;;;;;;;;;;;20.16;34.45;100578.84;5242798;27;34067;-93
2021/06/14 01:46:00;;;;;;;;;;;;;;;20.36;34.14;100575.03;5242493;27;33188;-92
2021/06/14 01:48:32;;;;;;;;;;;;;;;19.36;36.13;100573.56;5335481;26;33137;-91
2021/06/14 01:51:06;;;;;;;;;;;;;;;19.98;35.00;100573.69;5260185;27;32766;-92
2021/06/14 01:53:40;;;;;;;;;;;;;;;19.56;36.04;100569.81;5261683;27;32880;-92
2021/06/14 01:56:09;;;;;;;;;;;;;;;19.29;36.64;100567.75;5225293;27;33030;-91
2021/06/14 01:58:38;;;;;;;;;;;;;;;19.05;37.38;100566.44;5260447;27;33794;-91
2021/06/14 02:01:08;;;;;;;;;;;;;;;19.18;37.28;100559.56;5242087;27;32033;-91
2021/06/14 02:03:37;;;;;;;;;;;;;;;18.59;38.54;100562.59;5243134;27;32761;-91
2021/06/14 02:06:06;;;;;;;;;;;;;;;19.12;37.60;100570.44;5260562;27;32792;-91
2021/06/14 02:08:34;;;;;;;;;;;;;;;19.76;36.27;100570.50;5259414;27;33729;-93
2021/06/14 02:11:04;;;;;;;;;;;;;;;19.36;36.95;100577.06;5259752;27;32362;-92
2021/06/14 02:13:33;;;;;;;;;;;;;;;19.32;37.00;100578.16;5242382;27;33113;-92
2021/06/14 02:16:02;;;;;;;;;;;;;;;19.71;36.12;100577.84;5259713;27;34449;-91
2021/06/14 02:18:31;;;;;;;;;;;;;;;20.14;35.26;100564.84;5335253;26;32824;-92
2021/06/14 02:21:00;;;;;;;;;;;;;;;19.75;35.97;100563.50;5259722;27;31872;-92
2021/06/14 02:23:27;;;;;;;;;;;;;;;19.80;35.97;100567.59;5259378;27;33884;-92
2021/06/14 02:25:57;;;;;;;;;;;;;;;19.85;35.98;100580.59;5259779;27;33646;-93
2021/06/14 02:28:27;;;;;;;;;;;;;;;19.24;37.52;100569.81;5259931;27;32855;-93
2021/06/14 02:30:56;;;;;;;;;;;;;;;18.87;38.37;100566.44;5353333;26;32955;-93
2021/06/14 02:33:25;;;;;;;;;;;;;;;18.93;38.27;100568.81;5259761;27;34031;-91
2021/06/14 02:35:54;;;;;;;;;;;;;;;19.57;36.85;100570.66;5241235;27;33059;-91
2021/06/14 02:38:24;;;;;;;;;;;;;;;19.94;36.17;100574.75;5242384;27;33062;-92
2021/06/14 02:40:52;;;;;;;;;;;;;;;20.23;35.56;100569.59;5259344;27;31998;-92
2021/06/14 02:43:21;;;;;;;;;;;;;;;19.91;36.22;100569.66;5259364;27;33236;-92
2021/06/14 02:45:51;;;;;;;;;;;;;;;20.05;36.03;100573.31;5242019;27;33068;-93
2021/06/14 02:48:20;;;;;;;;;;;;;;;20.42;35.32;100576.47;5258866;27;33774;-93
2021/06/14 02:50:48;;;;;;;;;;;;;;;20.84;34.49;100574.88;5241144;27;31999;-93
2021/06/14 02:53:17;;;;;;;;;;;;;;;20.27;35.62;100578.22;5242530;27;32970;-92
2021/06/14 02:55:51;;;;;;;;;;;;;;;20.57;35.03;100580.84;5260326;27;33059;-92
2021/06/14 02:58:21;;;;;;;;;;;;;;;20.52;35.02;100578.47;5242490;27;32932;-91
2021/06/14 03:00:50;;;;;;;;;;;;;;;19.74;36.58;100575.03;5224535;27;31913;-92
2021/06/14 03:03:17;;;;;;;;;;;;;;;19.18;37.87;100580.69;5259123;27;33007;-91
2021/06/14 03:05:49;;;;;;;;;;;;;;;18.68;39.15;100572.69;5242876;27;34008;-92
2021/06/14 03:08:18;;;;;;;;;;;;;;;19.29;37.96;100566.91;5259099;27;33852;-92
2021/06/14 03:10:48;;;;;;;;;;;;;;;17.84;41.17;100581.19;5259591;27;32086;-93
2021/06/14 03:13:17;;;;;;;;;;;;;;;18.09;40.93;100563.34;5260739;27;32737;-91
2021/06/14 03:15:45;;;;;;;;;;;;;;;19.25;38.26;100573.28;5264267;27;33499;-92
2021/06/14 03:18:14;;;;;;;;;;;;;;;19.43;37.62;100569.63;5262713;27;33206;-92
2021/06/14 03:20:43;;;;;;;;;;;;;;;19.96;36.41;100575.53;5242901;27;32554;-94
2021/06/14 03:23:15;;;;;;;;;;;;;;;20.19;36.01;100573.38;5260486;27;33889;-92
2021/06/14 03:25:45;;;;;;;;;;;;;;;19.74;37.04;100572.37;5242877;27;32934;-91
2021/06/14 03:28:13;;;;;;;;;;;;;;;19.77;36.68;100577.47;5259934;27;32942;-91
2021/06/14 03:30:41;;;;;;;;;;;;;;;19.24;37.92;100580.38;5242385;27;31940;-93
2021/06/14 03:33:09;;;;;;;;;;;;;;;19.77;36.92;100582.78;5242376;27;32708;-92
2021/06/14 03:35:37;;;;;;;;;;;;;;;19.81;36.83;100579.03;5259842;27;32906;-92
2021/06/14 03:38:08;;;;;;;;;;;;;;;19.60;37.48;100581.09;5260749;27;32901;-93
2021/06/14 03:40:36;;;;;;;;;;;;;;;19.74;37.32;100583.78;5260277;27;32483;-91
2021/06/14 03:43:04;;;;;;;;;;;;;;;19.94;37.02;100580.06;5260232;27;34059;-92
2021/06/14 03:45:48;;;;;;;;;;;;;;;20.55;35.74;100573.94;5250290;27;34128;-91
2021/06/14 03:48:16;;;;;;;;;;;;;;;20.11;36.63;100580.91;5264058;27;32768;-93
2021/06/14 03:50:43;;;;;;;;;;;;;;;20.28;36.23;100578.12;5263118;27;32054;-92
2021/06/14 03:53:17;;;;;;;;;;;;;;;19.67;37.71;100574.50;5260951;27;33031;-93
2021/06/14 03:55:45;;;;;;;;;;;;;;;19.41;38.38;100581.22;5242710;27;33219;-91
2021/06/14 03:58:13;;;;;;;;;;;;;;;20.03;37.07;100576.88;5260020;27;32740;-92
2021/06/14 04:00:41;;;;;;;;;;;;;;;19.52;38.21;100584.16;5260245;27;32236;-92
2021/06/14 04:03:09;;;;;;;;;;;;;;;19.40;38.67;100579.50;5250346;27;32957;-93
2021/06/14 04:05:40;;;;;;;;;;;;;;;19.74;37.79;100575.03;5270255;27;33036;-92
2021/06/14 04:08:13;;;;;;;;;;;;;;;20.44;36.28;100579.87;5268921;27;33201;-92
2021/06/14 04:10:45;;;;;;;;;;;;;;;19.90;37.51;100586.47;5272400;26;31776;-91
2021/06/14 04:13:14;;;;;;;;;;;;;;;20.32;36.74;100589.37;5269215;27;33734;-93
2021/06/14 04:15:41;;;;;;;;;;;;;;;20.49;36.50;100583.94;5266027;27;34679;-91
2021/06/14 04:18:10;;;;;;;;;;;;;;;19.41;38.63;100581.22;5273532;27;33277;-92
2021/06/14 04:20:40;;;;;;;;;;;;;;;20.13;37.19;100584.28;5244131;27;31777;-92
2021/06/14 04:23:11;;;;;;;;;;;;;;;18.69;40.29;100587.59;5260924;27;32997;-92
2021/06/14 04:25:41;;;;;;;;;;;;;;;19.95;37.80;100594.16;5243072;27;32961;-93
2021/06/14 04:28:08;;;;;;;;;;;;;;;19.83;37.81;100585.94;5266555;27;32786;-92
2021/06/14 04:30:36;;;;;;;;;;;;;;;18.23;41.92;100578.47;5270888;27;33706;-93
2021/06/14 04:33:09;;;;;;;;;;;;;;;19.34;39.42;100586.88;5269824;27;33147;-93
2021/06/14 04:35:36;;;;;;;;;;;;;;;18.71;40.70;100582.22;5262349;27;33215;-93
2021/06/14 04:38:05;;;;;;;;;;;;;;;19.82;38.36;100580.75;5250914;27;32355;-93
2021/06/14 04:40:32;;;;;;;;;;;;;;;19.55;38.64;100583.13;5275134;27;33658;-93
2021/06/14 04:43:01;;;;;;;;;;;;;;;20.08;37.82;100583.72;5274347;27;33806;-92
2021/06/14 04:45:30;;;;;;;;;;;;;;;20.20;37.50;100585.66;5262527;27;32827;-93
2021/06/14 04:47:58;;;;;;;;;;;;;;;19.87;38.32;100585.81;5268791;27;33603;-93
2021/06/14 04:50:29;;;;;;;;;;;;;;;20.89;36.18;100590.47;5262898;27;32097;-92
2021/06/14 04:52:58;;;;;;;;;;;;;;;20.42;37.42;100595.84;5278507;27;35131;-92
2021/06/14 04:55:26;;;;;;;;;;;;;;;21.09;35.83;100598.06;5259812;27;33574;-93
2021/06/14 04:57:53;;;;;;;;;;;;;;;21.39;35.09;100591.78;5262054;27;33851;-93
2021/06/14 05:00:45;;;;;;;;;;;;;;;21.94;34.22;100589.25;5194011;27;32477;-93
2021/06/14 05:03:34;;;;;;;;;;;;;;;22.12;33.90;100593.34;5206533;27;32927;-93
2021/06/14 05:06:02;;;;;;;;;;;;;;;22.49;33.14;100590.06;5188187;27;32632;-93
2021/06/14 05:08:51;;;;;;;;;;;;;;;21.83;34.04;100589.94;5209750;27;33089;-94
2021/06/14 05:11:19;;;;;;;;;;;;;;;22.61;32.79;100591.06;5200272;27;32047;-93
2021/06/14 05:14:27;;;;;;;;;;;;;;;22.54;32.95;100592.44;5213725;27;32680;-93
2021/06/14 05:16:56;;;;;;;;;;;;;;;22.64;32.91;100594.34;5197151;27;33271;-93
2021/06/14 05:19:47;;;;;;;;;;;;;;;21.76;34.85;100599.25;5200296;27;33014;-92
2021/06/14 05:22:16;;;;;;;;;;;;;;;22.46;33.29;100607.06;5179854;27;33165;-94
2021/06/14 05:24:43;;;;;;;;;;;;;;;23.37;31.52;100604.47;5195880;27;33303;-94
2021/06/14 05:27:13;;;;;;;;;;;;;;;22.94;32.45;100610.94;5196562;27;34057;-92
2021/06/14 05:29:40;;;;;;;;;;;;;;;23.21;31.79;100610.84;5195754;27;33770;-94
2021/06/14 05:32:08;;;;;;;;;;;;;;;22.52;32.92;100606.66;5196276;27;33002;-91
2021/06/14 05:34:41;;;;;;;;;;;;;;;22.90;32.58;100601.50;5196581;27;32986;-93
2021/06/14 05:37:09;;;;;;;;;;;;;;;22.52;33.22;100600.47;5197602;27;33852;-91
2021/06/14 05:39:37;;;;;;;;;;;;;;;23.27;32.04;100604.28;5206000;27;33294;-90
2021/06/14 05:42:07;;;;;;;;;;;;;;;22.44;33.99;100597.50;5207142;27;31579;-89
2021/06/14 05:44:35;;;;;;;;;;;;;;;23.90;31.30;100602.41;5205166;27;32736;-90
2021/06/14 05:47:03;;;;;;;;;;;;;;;24.00;30.86;100602.59;5204029;27;33873;-92
2021/06/14 05:49:36;;;;;;;;;;;;;;;23.72;31.46;100595.75;5241508;27;34196;-89
2021/06/14 05:52:04;;;;;;;;;;;;;;;24.09;30.90;100604.59;5221544;27;33250;-90
2021/06/14 05:54:33;;;;;;;;;;;;;;;24.00;30.99;100607.94;5221615;27;33090;-89
2021/06/14 05:57:07;;;;;;;;;;;;;;;24.57;30.00;100603.66;5222159;27;33982;-89
2021/06/14 05:59:37;;;;;;;;;;;;;;;24.56;30.13;100607.28;5201898;27;32739;-93
2021/06/14 06:02:05;;;;;;;;;;;;;;;24.69;29.73;100607.25;5220363;27;33196;-90
2021/06/14 06:04:36;;;;;;;;;;;;;;;23.95;31.02;100610.91;5203657;27;32718;-89
2021/06/14 06:07:04;;;;;;;;;;;;;;;24.40;30.48;100614.72;5219898;27;34117;-91
2021/06/14 06:09:32;;;;;;;;;;;;;;;24.10;31.10;100616.06;5201381;27;32776;-90
2021/06/14 06:12:00;;;;;;;;;;;;;;;23.86;31.48;100614.22;5233976;27;33165;-90
2021/06/14 06:14:28;;;;;;;;;;;;;;;23.70;31.52;100610.97;5201147;27;33878;-91
2021/06/14 06:16:56;;;;;;;;;;;;;;;24.28;30.56;100613.84;5217155;27;34058;-91
2021/06/14 06:19:24;;;;;;;;;;;;;;;24.65;29.91;100613.75;5216382;27;33681;-94
2021/06/14 06:21:54;;;;;;;;;;;;;;;24.04;30.84;100613.84;5201825;27;33366;-94
2021/06/14 06:24:31;;;;;;;;;;;;;;;25.08;29.31;100609.59;5201323;27;33816;-87
2021/06/14 06:27:00;;;;;;;;;;;;;;;24.89;29.89;100608.34;5215656;27;33275;-89
2021/06/14 06:29:28;;;;;;;;;;;;;;;24.79;30.09;100613.53;5217387;27;34245;-90
2021/06/14 06:31:55;;;;;;;;;;;;;;;25.09;29.53;100608.59;5198634;27;32448;-91
2021/06/14 06:34:23;;;;;;;;;;;;;;;24.33;30.64;100606.34;5217182;27;33054;-91
2021/06/14 06:36:51;;;;;;;;;;;;;;;24.62;30.39;100606.84;5223968;27;34067;-92
2021/06/14 06:39:22;;;;;;;;;;;;;;;24.15;31.19;100611.25;5225258;27;33669;-89
2021/06/14 06:41:50;;;;;;;;;;;;;;;24.26;31.26;100600.63;5216178;27;33378;-90
2021/06/14 06:44:18;;;;;;;;;;;;;;;25.00;29.93;100602.19;5217590;27;33974;-94
2021/06/14 06:46:54;;;;;;;;;;;;;;;25.10;29.51;100603.16;5201342;27;33423;-90
2021/06/14 06:49:22;;;;;;;;;;;;;;;23.65;32.19;100611.28;5198345;27;33810;-91
2021/06/14 06:51:50;;;;;;;;;;;;;;;25.10;29.86;100600.50;5198961;27;32269;-91
2021/06/14 06:54:18;;;;;;;;;;;;;;;25.01;29.76;100604.72;5197545;27;32951;-91
2021/06/14 06:56:48;;;;;;;;;;;;;;;25.50;28.97;100604.50;5233541;27;34034;-92
2021/06/14 06:59:16;;;;;;;;;;;;;;;25.89;28.27;100607.59;5180671;27;32577;-91
2021/06/14 07:01:46;;;;;;;;;;;;;;;26.26;27.75;100604.56;5198373;27;33001;-92
2021/06/14 07:04:14;;;;;;;;;;;;;;;25.22;29.43;100601.31;5216600;27;34074;-91
2021/06/14 07:06:43;;;;;;;;;;;;;;;25.72;28.84;100597.44;5197335;27;33529;-92
2021/06/14 07:09:11;;;;;;;;;;;;;;;25.95;28.39;100604.41;5169707;27;868496;-93
2021/06/14 07:11:40;;;;;;;;;;;;;;;25.25;29.47;100606.44;5199679;27;32071;-92
2021/06/14 07:14:08;;;;;;;;;;;;;;;24.87;30.03;100612.94;5215736;27;34017;-93
2021/06/14 07:16:38;;;;;;;;;;;;;;;25.57;29.11;100608.38;5218037;27;32978;-90
2021/06/14 07:19:05;;;;;;;;;;;;;;;25.68;29.09;100616.34;5218690;27;33817;-93
2021/06/14 07:21:34;;;;;;;;;;;;;;;23.85;32.17;100620.47;5200332;27;32510;-91
2021/06/14 07:24:03;;;;;;;;;;;;;;;25.55;29.57;100625.47;5201216;27;34272;-92
2021/06/14 07:26:32;;;;;;;;;;;;;;;25.80;29.09;100616.34;5201537;27;33045;-92
2021/06/14 07:29:01;;;;;;;;;;;;;;;25.32;29.71;100620.97;5200901;27;32839;-94
2021/06/14 07:31:29;;;;;;;;;;;;;;;25.76;29.02;100620.22;5222332;27;33393;-90
2021/06/14 07:34:00;;;;;;;;;;;;;;;24.61;31.00;100614.91;5214834;27;33346;-90
2021/06/14 07:36:29;;;;;;;;;;;;;;;25.49;30.10;100617.00;5233765;27;35431;-89
2021/06/14 07:38:57;;;;;;;;;;;;;;;25.52;29.51;100618.56;5233387;27;34022;-87
2021/06/14 07:41:25;;;;;;;;;;;;;;;26.34;28.41;100612.78;5215435;27;33251;-90
2021/06/14 07:43:54;;;;;;;;;;;;;;;26.46;27.88;100623.44;5215491;27;33261;-88
2021/06/14 07:46:22;;;;;;;;;;;;;;;27.02;27.46;100618.72;5247266;27;34109;-89
2021/06/14 07:48:50;;;;;;;;;;;;;;;26.38;28.29;100620.53;5203565;27;32813;-92
2021/06/14 07:51:18;;;;;;;;;;;;;;;25.58;29.69;100630.56;5198328;27;31721;-90
2021/06/14 07:53:49;;;;;;;;;;;;;;;26.82;28.05;100618.62;5215759;27;34252;-90
2021/06/14 07:56:20;;;;;;;;;;;;;;;27.11;27.58;100625.94;5198195;27;33194;-90
2021/06/14 07:58:48;;;;;;;;;;;;;;;25.99;29.26;100621.88;5197434;27;32620;-89
2021/06/14 08:01:16;;;;;;;;;;;;;;;26.16;28.73;100617.81;5215687;27;32897;-90
2021/06/14 08:03:49;;;;;;;;;;;;;;;25.43;30.13;100617.47;5216815;27;34535;-89
2021/06/14 08:06:17;;;;;;;;;;;;;;;26.26;28.84;100609.91;5198945;27;33941;-90
2021/06/14 08:08:45;;;;;;;;;;;;;;;26.80;27.98;100616.09;5215881;27;32529;-89
2021/06/14 08:11:15;;;;;;;;;;;;;;;26.42;28.76;100605.94;5234265;27;32222;-89
2021/06/14 08:13:43;;;;;;;;;;;;;;;26.76;28.60;100603.94;5198631;27;32935;-90
2021/06/14 08:16:23;;;;;;;;;;;;;;;26.66;29.10;100597.69;5234869;27;34398;-90
2021/06/14 08:27:01;;;;;;;;;;;;;;;27.48;27.16;100606.69;5218264;27;33150;-90
2021/06/14 08:29:30;;;;;;;;;;;;;;;27.56;26.92;100606.87;5198381;27;33319;-91
2021/06/14 08:31:58;;;;;;;;;;;;;;;27.76;26.55;100606.91;5198237;27;32417;-90
2021/06/14 08:34:27;;;;;;;;;;;;;;;27.35;27.25;100596.22;5199378;27;32794;-90
2021/06/14 08:36:54;;;;;;;;;;;;;;;27.23;27.29;100600.81;5198076;27;33417;-91
2021/06/14 08:39:22;;;;;;;;;;;;;;;27.00;28.01;100601.00;5198219;27;33220;-90
2021/06/14 08:41:51;;;;;;;;;;;;;;;27.00;28.16;100595.66;5215857;27;32696;-90
2021/06/14 08:44:19;;;;;;;;;;;;;;;26.23;29.32;100588.78;5216192;27;34988;-90
2021/06/14 08:46:49;;;;;;;;;;;;;;;27.90;26.49;100586.91;5216108;27;35113;-90
2021/06/14 08:49:18;;;;;;;;;;;;;;;28.27;25.93;100599.66;5198426;27;32837;-91
2021/06/14 08:51:45;;;;;;;;;;;;;;;28.55;25.33;100605.12;5218220;27;32862;-90
2021/06/14 08:54:14;;;;;;;;;;;;;;;28.77;25.07;100601.28;5217222;27;33315;-91
2021/06/14 08:56:42;;;;;;;;;;;;;;;28.16;25.68;100601.47;5217230;27;33740;-90
2021/06/14 08:59:11;;;;;;;;;;;;;;;28.53;25.02;100605.25;5201610;27;32888;-89
2021/06/14 09:01:40;;;;;;;;;;;;;;;28.37;25.41;100599.63;5204357;27;32560;-89
2021/06/14 09:04:08;;;;;;;;;;;;;;;27.90;25.77;100598.47;5202162;27;32970;-90
2021/06/14 09:06:37;;;;;;;;;;;;;;;27.00;27.65;100598.31;5234250;27;33580;-91
2021/06/14 09:09:07;;;;;;;;;;;;;;;27.76;26.11;100588.16;5198654;27;33807;-90
2021/06/14 09:11:36;;;;;;;;;;;;;;;27.87;25.73;100584.50;5198595;27;32963;-90
2021/06/14 09:14:13;;;;;;;;;;;;;;;27.48;25.77;100567.41;5198745;27;33084;-90
2021/06/14 09:16:42;;;;;;;;;;;;;;;27.16;25.84;100575.56;5233769;27;33662;-90
2021/06/14 09:19:27;;;;;;;;;;;;;;;27.54;25.28;100575.87;5233297;27;32758;-90
2021/06/14 09:21:56;;;;;;;;;;;;;;;27.75;24.91;100581.09;5198633;27;33020;-91
2021/06/14 09:24:24;;;;;;;;;;;;;;;28.29;24.13;100579.78;5233103;27;33404;-92
2021/06/14 09:26:56;;;;;;;;;;;;;;;28.39;23.68;100581.59;5235683;27;34551;-90
2021/06/14 09:29:28;;;;;;;;;;;;;;;27.83;24.46;100573.25;5202496;27;32801;-90
2021/06/14 09:31:58;;;;;;;;;;;;;;;26.99;25.11;100574.38;5254125;27;31981;-90
2021/06/14 09:34:37;;;;;;;;;;;;;;;27.85;24.43;100576.63;5198802;27;34280;-90
2021/06/14 09:37:06;;;;;;;;;;;;;;;28.93;23.34;100568.47;5210405;27;34079;-91
2021/06/14 09:39:34;;;;;;;;;;;;;;;28.74;23.76;100570.25;5215703;27;32702;-90
2021/06/14 09:42:11;;;;;;;;;;;;;;;28.64;23.71;100562.22;5234827;27;34423;-90
2021/06/14 09:44:40;;;;;;;;;;;;;;;28.56;23.38;100559.41;5233545;27;34346;-90
2021/06/14 09:47:10;;;;;;;;;;;;;;;28.59;22.96;100560.97;5226655;27;34092;-91
2021/06/14 09:49:39;;;;;;;;;;;;;;;29.75;21.47;100556.06;5205963;27;32719;-90
2021/06/14 09:52:18;;;;;;;;;;;;;;;30.37;20.22;100557.09;5222966;27;32812;-91
2021/06/14 09:54:46;;;;;;;;;;;;;;;29.41;22.07;100554.03;5202677;27;32805;-91
2021/06/14 09:57:26;;;;;;;;;;;;;;;30.22;21.58;100544.25;5200147;27;33407;-91
2021/06/14 10:00:05;;;;;;;;;;;;;;;30.26;21.50;100547.44;5199520;27;34301;-91
2021/06/14 10:02:44;;;;;;;;;;;;;;;30.59;20.98;100553.09;5201425;27;32438;-91
2021/06/14 10:05:18;;;;;;;;;;;;;;;29.85;21.43;100541.69;5198343;27;34230;-90
2021/06/14 10:07:47;;;;;;;;;;;;;;;30.28;20.70;100532.84;5216841;27;34037;-88
2021/06/14 10:10:27;;;;;;;;;;;;;;;30.22;20.81;100535.31;5218177;27;32938;-88
2021/06/14 10:12:56;;;;;;;;;;;;;;;30.15;20.29;100537.81;5217868;27;33707;-91
2021/06/14 10:15:33;;;;;;;;;;;;;;;30.43;20.47;100534.97;5218552;27;33210;-90
2021/06/14 10:18:04;;;;;;;;;;;;;;;30.10;19.95;100542.78;5236208;27;34423;-89
2021/06/14 10:20:32;;;;;;;;;;;;;;;30.78;19.65;100546.63;5217168;27;33939;-89
2021/06/14 10:23:00;;;;;;;;;;;;;;;30.26;20.30;100548.31;5198070;27;32429;-89
2021/06/14 10:25:34;;;;;;;;;;;;;;;30.91;19.34;100546.19;5200073;27;34443;-90
2021/06/14 10:28:02;;;;;;;;;;;;;;;30.93;19.77;100536.97;5233636;27;33427;-90
2021/06/14 10:30:30;;;;;;;;;;;;;;;30.34;20.62;100525.16;5215873;27;34775;-90
2021/06/14 10:32:59;;;;;;;;;;;;;;;30.51;20.35;100520.78;5216071;27;32816;-90
2021/06/14 10:35:27;;;;;;;;;;;;;;;31.00;19.75;100528.25;5216132;27;32595;-89
2021/06/14 10:37:54;;;;;;;;;;;;;;;31.70;19.00;100524.44;5215282;27;33003;-91
2021/06/14 10:40:26;;;;;;;;;;;;;;;30.90;19.40;100528.37;5216132;27;34268;-91
2021/06/14 10:42:54;;;;;;;;;;;;;;;31.64;18.51;100507.97;5198230;27;33450;-89
2021/06/14 10:45:26;;;;;;;;;;;;;;;31.20;18.29;100497.41;5199329;27;32618;-90
2021/06/14 10:47:55;;;;;;;;;;;;;;;31.10;18.61;100496.69;5215992;27;34975;-90
2021/06/14 10:50:25;;;;;;;;;;;;;;;30.31;19.81;100497.63;5197994;27;33683;-91
2021/06/14 10:52:55;;;;;;;;;;;;;;;30.41;20.17;100500.19;5216069;27;32040;-90
2021/06/14 10:55:28;;;;;;;;;;;;;;;31.07;19.26;100484.44;5198575;27;33869;-91
2021/06/14 10:57:56;;;;;;;;;;;;;;;29.90;20.65;100488.41;5214820;27;34516;-89
2021/06/14 11:00:26;;;;;;;;;;;;;;;30.32;19.67;100480.47;5215646;27;33709;-91
2021/06/14 11:02:55;;;;;;;;;;;;;;;31.54;18.33;100488.41;5289613;26;33053;-90
2021/06/14 11:05:34;;;;;;;;;;;;;;;31.45;18.18;100484.00;5233387;27;34680;-90
2021/06/14 11:08:11;;;;;;;;;;;;;;;31.02;18.63;100486.75;5198211;27;33889;-89
2021/06/14 11:10:38;;;;;;;;;;;;;;;31.72;18.19;100493.66;5234230;27;34691;-91
2021/06/14 11:13:07;;;;;;;;;;;;;;;31.40;19.14;100497.94;5218692;27;33973;-90
2021/06/14 11:15:35;;;;;;;;;;;;;;;31.56;19.12;100507.91;5200692;27;33182;-87
2021/06/14 11:18:07;;;;;;;;;;;;;;;31.63;18.49;100502.72;5217526;27;33945;-87
2021/06/14 11:20:36;;;;;;;;;;;;;;;31.59;18.07;100494.13;5236130;27;33945;-90
2021/06/14 11:23:06;;;;;;;;;;;;;;;32.13;17.53;100490.09;5198421;27;32408;-90
2021/06/14 11:25:43;;;;;;;;;;;;;;;31.50;17.78;100495.13;5198512;27;33219;-93
2021/06/14 11:28:11;;;;;;;;;;;;;;;31.88;17.42;100506.28;5197601;27;34331;-90
2021/06/14 11:30:50;;;;;;;;;;;;;;;32.50;16.84;100501.37;5216437;27;33687;-91
2021/06/14 11:33:23;;;;;;;;;;;;;;;31.90;17.71;100498.88;5215311;27;33116;-91
2021/06/14 11:35:53;;;;;;;;;;;;;;;30.73;18.55;100490.66;5216887;27;34189;-91
2021/06/14 11:38:21;;;;;;;;;;;;;;;30.99;17.80;100492.44;5215869;27;33172;-91
2021/06/14 11:40:54;;;;;;;;;;;;;;;31.54;17.30;100492.91;5199840;27;32561;-90
2021/06/14 11:43:23;;;;;;;;;;;;;;;31.08;17.28;100494.16;5216846;27;32097;-90
2021/06/14 11:45:52;;;;;;;;;;;;;;;31.42;16.78;100504.03;5207542;27;32599;-89
2021/06/14 11:48:22;;;;;;;;;;;;;;;32.00;16.41;100512.16;5216471;27;33985;-88
2021/06/14 11:51:07;;;;;;;;;;;;;;;32.59;16.11;100508.44;5233796;27;32454;-94
2021/06/14 11:53:44;;;;;;;;;;;;;;;32.28;16.21;100501.06;5216742;27;33021;-93
2021/06/14 11:56:13;;;;;;;;;;;;;;;31.18;17.14;100502.13;5227648;27;32564;-94
2021/06/14 11:58:42;;;;;;;;;;;;;;;31.41;16.84;100488.03;5201391;26;33076;-93
2021/06/14 12:01:38;;;;;;;;;;;;;;;30.86;17.40;100490.22;5202814;27;33398;-86
2021/06/14 12:05:05;;;;;;;;;;;;;;;31.40;16.75;100480.97;5188420;27;33484;-88
2021/06/14 12:11:48;;;;;;;;;;;;;;;30.58;17.47;100468.91;5239637;27;34507;-89
2021/06/14 12:14:52;;;;;;;;;;;;;;;30.43;17.87;100457.03;5202615;27;34422;-89
2021/06/14 12:17:35;;;;;;;;;;;;;;;30.97;17.88;100457.63;5297889;27;34010;-90
2021/06/14 12:20:20;;;;;;;;;;;;;;;30.55;17.85;100457.63;5218250;27;33253;-87
2021/06/14 12:23:05;;;;;;;;;;;;;;;31.16;17.32;100455.69;5202438;27;34639;-88
2021/06/14 12:25:52;;;;;;;;;;;;;;;31.35;16.56;100445.62;5217232;27;34769;-88
2021/06/14 12:28:22;;;;;;;;;;;;;;;31.41;16.98;100442.28;5215391;27;33785;-87
2021/06/14 12:31:01;;;;;;;;;;;;;;;31.69;16.89;100440.13;5218927;27;32828;-87
2021/06/14 12:33:49;;;;;;;;;;;;;;;32.01;16.41;100434.88;5218770;27;36870;-91
2021/06/14 12:36:29;;;;;;;;;;;;;;;31.88;16.09;100443.47;5217917;27;33472;-89
2021/06/14 12:39:31;;;;;;;;;;;;;;;31.49;16.06;100439.59;5217637;27;32290;-87
2021/06/14 12:42:23;;;;;;;;;;;;;;;31.75;15.88;100427.81;5217543;27;33089;-90
2021/06/14 12:45:11;;;;;;;;;;;;;;;31.95;16.02;100423.78;5218367;27;32958;-91
2021/06/14 12:47:52;;;;;;;;;;;;;;;31.80;16.20;100423.63;5216935;27;34891;-91
2021/06/14 12:50:41;;;;;;;;;;;;;;;32.42;15.77;100422.16;5220032;26;33353;-89
2021/06/14 12:53:23;;;;;;;;;;;;;;;32.49;15.77;100426.87;5217924;27;35074;-89
2021/06/14 12:56:01;;;;;;;;;;;;;;;32.18;15.75;100422.22;5217800;27;34191;-90
2021/06/14 12:59:16;;;;;;;;;;;;;;;32.24;15.77;100411.62;5264540;27;34926;-89
2021/06/14 13:01:52;;;;;;;;;;;;;;;33.11;15.68;100412.59;5240539;26;33996;-87
2021/06/14 13:16:06;;;;;;;;;;;;;;;32.21;15.25;100409.25;5125679;27;32058;-88
2021/06/14 13:19:00;;;;;;;;;;;;;;;32.24;14.88;100399.97;5131000;27;34048;-89
2021/06/14 13:22:21;;;;;;;;;;;;;;;32.19;14.84;100403.22;5106235;28;34940;-87
2021/06/14 13:25:44;;;;;;;;;;;;;;;;;;;;;